createdAt,value
2018-05-19T00:02:09.798Z,21.63
2018-05-19T00:04:38.220Z,32.03
2018-05-19T00:07:05.936Z,27.83
2018-05-19T00:09:34.364Z,27.87
2018-05-19T00:12:02.063Z,27.03
2018-05-19T00:14:30.310Z,28.87
2018-05-19T00:16:58.003Z,26.23
2018-05-19T00:19:26.438Z,24.60
2018-05-19T00:21:54.126Z,31.03
2018-05-19T00:24:21.803Z,24.60
2018-05-19T00:26:50.285Z,24.50
2018-05-19T00:29:17.937Z,25.90
2018-05-19T00:31:45.625Z,29.90
2018-05-19T00:34:14.054Z,30.73
2018-05-19T00:36:41.746Z,37.53
2018-05-19T00:39:09.416Z,25.77
2018-05-19T00:41:37.865Z,35.13
2018-05-19T00:44:05.644Z,25.33
2018-05-19T00:46:33.319Z,31.33
2018-05-19T00:49:03.116Z,30.00
2018-05-19T00:51:30.808Z,25.73
2018-05-19T00:53:59.239Z,34.80
2018-05-19T00:56:26.943Z,25.87
2018-05-19T00:58:55.376Z,26.70
2018-05-19T01:01:23.078Z,28.90
2018-05-19T01:03:51.515Z,24.47
2018-05-19T01:06:19.218Z,23.40
2018-05-19T01:08:47.646Z,27.70
2018-05-19T01:11:15.342Z,27.03
2018-05-19T01:13:43.016Z,27.67
2018-05-19T01:16:10.728Z,24.37
2018-05-19T01:18:38.399Z,34.40
2018-05-19T01:21:06.402Z,30.67
2018-05-19T01:23:34.095Z,28.50
2018-05-19T01:26:02.592Z,32.33
2018-05-19T01:28:31.007Z,33.53
2018-05-19T01:30:58.683Z,25.37
2018-05-19T01:33:26.370Z,39.83
2018-05-19T01:35:54.841Z,31.23
2018-05-19T01:38:22.574Z,27.90
2018-05-19T01:40:50.228Z,31.70
2018-05-19T01:43:17.926Z,29.47
2018-05-19T01:45:46.358Z,33.07
2018-05-19T01:48:14.047Z,35.30
2018-05-19T01:50:41.773Z,40.73
2018-05-19T01:53:09.462Z,31.40
2018-05-19T01:55:37.141Z,27.47
2018-05-19T01:58:04.835Z,30.80
2018-05-19T02:00:32.522Z,35.77
2018-05-19T02:03:01.452Z,26.43
2018-05-19T02:05:29.123Z,31.17
2018-05-19T02:07:56.809Z,34.03
2018-05-19T02:10:24.492Z,36.00
2018-05-19T02:12:52.178Z,34.10
2018-05-19T02:15:19.849Z,30.43
2018-05-19T02:17:47.532Z,36.33
2018-05-19T02:20:15.195Z,29.63
2018-05-19T02:22:43.665Z,43.13
2018-05-19T02:25:11.338Z,32.13
2018-05-19T02:27:39.798Z,34.60
2018-05-19T02:30:07.452Z,31.13
2018-05-19T02:32:35.160Z,32.80
2018-05-19T02:35:03.689Z,30.17
2018-05-19T02:37:32.563Z,30.67
2018-05-19T02:40:01.286Z,34.50
2018-05-19T02:42:28.955Z,35.90
2018-05-19T02:44:56.650Z,28.93
2018-05-19T02:47:24.314Z,35.43
2018-05-19T02:49:52.006Z,29.20
2018-05-19T02:52:19.671Z,31.53
2018-05-19T02:54:47.391Z,37.47
2018-05-19T02:57:15.059Z,27.50
2018-05-19T02:59:42.785Z,39.73
2018-05-19T03:02:10.454Z,36.57
2018-05-19T03:04:38.137Z,36.57
2018-05-19T03:07:06.566Z,39.70
2018-05-19T03:09:34.256Z,28.43
2018-05-19T03:12:02.679Z,29.60
2018-05-19T03:14:31.288Z,32.60
2018-05-19T03:16:58.970Z,30.77
2018-05-19T03:19:26.667Z,27.53
2018-05-19T03:21:54.334Z,30.40
2018-05-19T03:24:22.038Z,23.73
2018-05-19T03:26:49.702Z,28.03
2018-05-19T03:29:17.385Z,39.10
2018-05-19T03:31:45.051Z,35.27
2018-05-19T03:34:12.768Z,32.60
2018-05-19T03:36:40.440Z,33.87
2018-05-19T03:39:08.124Z,35.07
2018-05-19T03:41:35.790Z,29.40
2018-05-19T03:44:03.467Z,35.83
2018-05-19T03:46:31.898Z,38.33
2018-05-19T03:49:00.284Z,30.13
2018-05-19T03:51:27.946Z,40.50
2018-05-19T03:53:55.731Z,40.93
2018-05-19T03:56:23.402Z,34.43
2018-05-19T03:59:03.628Z,27.03
2018-05-19T04:01:43.242Z,38.30
2018-05-19T04:04:10.915Z,29.67
2018-05-19T04:06:38.590Z,39.60
2018-05-19T04:09:06.250Z,34.83
2018-05-19T04:11:33.965Z,42.77
2018-05-19T04:14:03.074Z,30.30
2018-05-19T04:16:32.667Z,29.73
2018-05-19T04:19:02.076Z,32.00
2018-05-19T04:21:30.189Z,35.00
2018-05-19T04:23:57.874Z,35.00
2018-05-19T04:26:25.565Z,35.60
2018-05-19T04:28:53.997Z,34.30
2018-05-19T04:31:21.702Z,41.20
2018-05-19T04:33:50.131Z,37.00
2018-05-19T04:36:17.823Z,40.47
2018-05-19T04:38:45.490Z,33.83
2018-05-19T04:41:13.208Z,33.20
2018-05-19T04:43:40.865Z,33.53
2018-05-19T04:46:08.580Z,38.73
2018-05-19T04:48:37.007Z,38.10
2018-05-19T04:51:04.701Z,36.40
2018-05-19T04:53:32.370Z,34.73
2018-05-19T04:56:01.057Z,37.77
2018-05-19T04:58:28.704Z,31.30
2018-05-19T05:00:56.389Z,39.93
2018-05-19T05:03:24.812Z,34.23
2018-05-19T05:05:52.502Z,40.50
2018-05-19T05:08:20.171Z,35.83
2018-05-19T05:10:47.860Z,45.83
2018-05-19T05:13:16.296Z,37.60
2018-05-19T05:15:43.959Z,65.80
2018-05-19T05:18:11.655Z,42.17
2018-05-19T05:20:40.082Z,54.63
2018-05-19T05:23:07.767Z,59.30
2018-05-19T05:25:35.437Z,56.80
2018-05-19T05:28:03.113Z,55.20
2018-05-19T05:30:30.773Z,49.63
2018-05-19T05:32:58.462Z,41.23
2018-05-19T05:35:26.907Z,42.30
2018-05-19T05:37:54.594Z,47.93
2018-05-19T05:40:23.027Z,48.87
2018-05-19T05:42:50.719Z,45.53
2018-05-19T05:45:18.382Z,41.97
2018-05-19T05:47:46.063Z,47.47
2018-05-19T05:50:14.557Z,71.43
2018-05-19T05:52:42.191Z,43.07
2018-05-19T05:55:09.893Z,51.23
2018-05-19T05:57:37.594Z,59.67
2018-05-19T06:00:05.532Z,53.23
2018-05-19T06:02:33.232Z,46.30
2018-05-19T06:05:00.898Z,55.43
2018-05-19T06:07:28.606Z,51.67
2018-05-19T06:09:56.274Z,56.67
2018-05-19T06:12:24.023Z,58.40
2018-05-19T06:14:51.672Z,56.83
2018-05-19T06:17:20.127Z,50.70
2018-05-19T06:19:47.793Z,52.63
2018-05-19T06:22:15.523Z,61.97
2018-05-19T06:24:43.206Z,64.03
2018-05-19T06:27:10.889Z,50.13
2018-05-19T06:29:39.345Z,59.13
2018-05-19T06:32:07.057Z,55.93
2018-05-19T06:34:34.738Z,55.53
2018-05-19T06:37:02.414Z,65.80
2018-05-19T06:39:31.222Z,63.50
2018-05-19T06:41:58.924Z,61.60
2018-05-19T06:44:27.398Z,63.73
2018-05-19T06:46:55.078Z,64.17
2018-05-19T06:49:22.769Z,45.90
2018-05-19T06:51:50.441Z,51.30
2018-05-19T06:54:18.138Z,47.00
2018-05-19T06:56:46.555Z,47.73
2018-05-19T06:59:14.245Z,47.73
2018-05-19T07:01:41.919Z,50.50
2018-05-19T07:04:09.609Z,59.70
2018-05-19T07:06:37.282Z,50.23
2018-05-19T07:09:04.981Z,52.40
2018-05-19T07:11:32.647Z,43.70
2018-05-19T07:14:00.380Z,48.97
2018-05-19T07:16:28.051Z,49.10
2018-05-19T07:18:55.966Z,55.73
2018-05-19T07:21:23.635Z,47.27
2018-05-19T07:23:52.089Z,47.80
2018-05-19T07:26:19.761Z,48.90
2018-05-19T07:28:47.446Z,43.40
2018-05-19T07:31:15.879Z,48.07
2018-05-19T07:33:43.574Z,44.37
2018-05-19T07:36:12.351Z,53.30
2018-05-19T07:38:40.074Z,46.00
2018-05-19T07:41:07.742Z,39.83
2018-05-19T07:43:35.458Z,46.63
2018-05-19T07:46:03.142Z,38.50
2018-05-19T07:48:30.792Z,32.47
2018-05-19T07:50:58.482Z,30.13
2018-05-19T07:53:26.190Z,31.30
2018-05-19T07:55:53.891Z,34.23
2018-05-19T07:58:21.581Z,31.43
2018-05-19T08:00:49.640Z,29.73
2018-05-19T08:03:18.454Z,29.63
2018-05-19T08:05:46.221Z,30.30
2018-05-19T08:08:13.895Z,26.10
2018-05-19T08:10:41.765Z,33.47
2018-05-19T08:13:10.235Z,25.83
2018-05-19T08:15:38.302Z,25.10
2018-05-19T08:18:06.755Z,26.27
2018-05-19T08:20:34.437Z,24.63
2018-05-19T08:23:02.110Z,28.00
2018-05-19T08:25:32.411Z,26.60
2018-05-19T08:28:01.393Z,23.43
2018-05-19T08:30:29.119Z,21.60
2018-05-19T08:32:56.808Z,26.20
2018-05-19T08:35:24.500Z,25.60
2018-05-19T08:37:52.157Z,27.40
2018-05-19T08:40:19.853Z,21.47
2018-05-19T08:42:48.389Z,19.90
2018-05-19T08:45:16.092Z,22.77
2018-05-19T08:47:44.558Z,19.80
2018-05-19T08:50:12.267Z,23.20
2018-05-19T08:52:40.191Z,23.20
2018-05-19T08:55:07.879Z,27.90
2018-05-19T08:57:35.591Z,21.67
2018-05-19T09:00:04.222Z,20.90
2018-05-19T09:02:34.367Z,25.00
2018-05-19T09:05:02.141Z,17.70
2018-05-19T09:07:31.748Z,18.63
2018-05-19T09:09:59.467Z,17.30
2018-05-19T09:12:29.057Z,15.30
2018-05-19T09:14:56.768Z,14.93
2018-05-19T09:17:24.463Z,14.77
2018-05-19T09:19:52.134Z,14.87
2018-05-19T09:22:19.830Z,15.80
2018-05-19T09:24:48.267Z,18.47
2018-05-19T09:27:16.028Z,15.30
2018-05-19T09:29:44.233Z,20.80
2018-05-19T09:32:12.692Z,15.60
2018-05-19T09:34:40.401Z,15.97
2018-05-19T09:37:08.094Z,18.83
2018-05-19T09:39:35.850Z,17.93
2018-05-19T09:42:04.404Z,17.13
2018-05-19T09:44:32.089Z,18.03
2018-05-19T09:47:01.903Z,14.60
2018-05-19T09:49:30.228Z,20.23
2018-05-19T09:51:57.931Z,16.87
2018-05-19T09:54:25.601Z,20.53
2018-05-19T09:56:53.300Z,15.37
2018-05-19T09:59:20.981Z,15.27
2018-05-19T10:01:48.709Z,11.90
2018-05-19T10:04:16.386Z,15.07
2018-05-19T10:06:44.118Z,18.40
2018-05-19T10:09:11.800Z,16.13
2018-05-19T10:11:39.525Z,14.87
2018-05-19T10:14:07.198Z,14.83
2018-05-19T10:16:34.913Z,13.93
2018-05-19T10:19:02.590Z,15.53
2018-05-19T10:21:32.262Z,18.73
2018-05-19T10:23:59.937Z,17.70
2018-05-19T10:26:27.619Z,12.10
2018-05-19T10:28:56.080Z,11.97
2018-05-19T10:31:23.781Z,11.10
2018-05-19T10:33:51.467Z,12.67
2018-05-19T10:36:19.140Z,10.77
2018-05-19T10:38:46.849Z,14.30
2018-05-19T10:41:15.278Z,10.30
2018-05-19T10:43:42.965Z,17.43
2018-05-19T10:46:10.645Z,8.80
2018-05-19T10:48:39.257Z,16.63
2018-05-19T10:51:06.968Z,22.60
2018-05-19T10:53:34.663Z,16.07
2018-05-19T10:56:03.324Z,11.10
2018-05-19T10:58:30.988Z,5.73
2018-05-19T11:00:58.640Z,5.80
2018-05-19T11:03:26.328Z,5.80
2018-05-19T11:05:54.767Z,7.57
2018-05-19T11:08:22.462Z,8.13
2018-05-19T11:10:50.131Z,6.23
2018-05-19T11:13:18.594Z,6.27
